createdAt,value
2019-04-27T00:02:18.158Z,18.31
2019-04-27T00:04:55.893Z,18.29
2019-04-27T00:07:33.677Z,18.13
2019-04-27T00:10:05.018Z,18.09
2019-04-27T00:12:35.949Z,18.01
2019-04-27T00:15:07.071Z,17.98
2019-04-27T00:17:58.330Z,17.96
2019-04-27T00:20:28.005Z,17.95
2019-04-27T00:22:58.803Z,17.84
2019-04-27T00:25:30.809Z,17.87
2019-04-27T00:28:00.061Z,17.83
2019-04-27T00:30:29.295Z,17.81
2019-04-27T00:32:59.872Z,17.81
2019-04-27T00:35:30.664Z,17.78
2019-04-27T00:38:07.573Z,17.77
2019-04-27T00:40:39.996Z,17.76
2019-04-27T00:43:09.163Z,17.71
2019-04-27T00:45:38.268Z,17.70
2019-04-27T00:48:07.427Z,17.66
2019-04-27T00:50:36.623Z,17.59
2019-04-27T00:53:05.882Z,17.61
2019-04-27T00:55:36.692Z,17.63
2019-04-27T00:58:23.126Z,17.68
2019-04-27T01:00:56.744Z,17.64
2019-04-27T01:03:27.527Z,17.46
2019-04-27T01:05:56.884Z,17.49
2019-04-27T01:08:27.932Z,17.51
2019-04-27T01:10:57.370Z,17.57
2019-04-27T01:13:29.248Z,17.60
2019-04-27T01:15:57.597Z,17.61
2019-04-27T01:18:28.448Z,17.59
2019-04-27T01:20:59.101Z,17.62
2019-04-27T01:23:29.409Z,17.64
2019-04-27T01:26:06.708Z,17.66
2019-04-27T01:28:38.884Z,17.66
2019-04-27T01:31:09.353Z,17.72
2019-04-27T01:33:39.007Z,17.78
2019-04-27T01:36:08.917Z,17.81
2019-04-27T01:38:41.042Z,17.83
2019-04-27T01:41:10.460Z,17.82
2019-04-27T01:43:39.665Z,17.79
2019-04-27T01:46:09.236Z,17.71
2019-04-27T01:48:38.795Z,17.66
2019-04-27T01:51:09.818Z,17.57
2019-04-27T01:56:29.421Z,17.55
2019-04-27T01:58:59.537Z,17.54
2019-04-27T02:01:33.098Z,17.54
2019-04-27T02:04:12.769Z,17.52
2019-04-27T02:06:42.188Z,17.43
2019-04-27T02:09:12.723Z,17.37
2019-04-27T02:11:41.994Z,17.41
2019-04-27T02:14:11.319Z,17.44
2019-04-27T02:16:41.437Z,17.49
2019-04-27T02:19:11.284Z,17.56
2019-04-27T02:21:41.157Z,17.61
2019-04-27T02:24:11.252Z,17.68
2019-04-27T02:26:40.728Z,17.75
2019-04-27T02:29:26.342Z,17.87
2019-04-27T02:31:57.348Z,17.93
2019-04-27T02:34:34.362Z,17.91
2019-04-27T02:37:03.852Z,17.94
2019-04-27T02:39:32.991Z,18.01
2019-04-27T02:42:04.978Z,18.10
2019-04-27T02:44:40.544Z,18.18
2019-04-27T02:47:10.337Z,18.04
2019-04-27T02:49:40.752Z,18.07
2019-04-27T02:52:11.936Z,18.06
2019-04-27T02:54:41.187Z,18.03
2019-04-27T02:57:10.484Z,18.08
2019-04-27T02:59:40.111Z,18.10
2019-04-27T03:02:20.060Z,18.16
2019-04-27T03:04:51.189Z,18.21
2019-04-27T03:07:20.514Z,18.20
2019-04-27T03:09:50.977Z,18.20
2019-04-27T03:12:22.326Z,18.25
2019-04-27T03:15:10.208Z,18.33
2019-04-27T03:17:43.187Z,18.36
2019-04-27T03:20:17.196Z,18.31
2019-04-27T03:22:49.839Z,18.35
2019-04-27T03:25:23.660Z,18.41
2019-04-27T03:28:00.280Z,18.49
2019-04-27T03:30:31.889Z,18.53
2019-04-27T03:33:03.083Z,18.56
2019-04-27T03:35:36.733Z,18.60
2019-04-27T03:38:04.997Z,18.61
2019-04-27T03:40:34.398Z,18.62
2019-04-27T03:43:06.135Z,18.67
2019-04-27T03:45:35.452Z,18.65
2019-04-27T03:48:04.682Z,18.60
2019-04-27T03:50:39.844Z,18.61
2019-04-27T03:53:29.778Z,18.63
2019-04-27T03:56:15.987Z,18.65
2019-04-27T03:58:49.666Z,18.60
2019-04-27T04:01:20.330Z,18.48
2019-04-27T04:03:50.448Z,18.50
2019-04-27T04:06:19.755Z,18.50
2019-04-27T04:08:50.766Z,18.51
2019-04-27T04:11:22.348Z,18.56
2019-04-27T04:13:56.504Z,18.60
2019-04-27T04:16:29.677Z,18.59
2019-04-27T04:19:01.349Z,18.55
2019-04-27T04:21:31.226Z,18.59
2019-04-27T04:24:01.519Z,18.49
2019-04-27T04:26:34.157Z,18.42
2019-04-27T04:29:04.053Z,18.44
2019-04-27T04:31:33.898Z,18.49
2019-04-27T04:34:03.966Z,18.54
2019-04-27T04:36:34.319Z,18.50
2019-04-27T04:39:06.033Z,18.60
2019-04-27T04:41:52.554Z,18.56
2019-04-27T04:44:30.253Z,18.56
2019-04-27T04:47:01.966Z,18.47
2019-04-27T04:49:32.312Z,18.46
2019-04-27T04:52:02.411Z,18.47
2019-04-27T04:54:32.114Z,18.38
2019-04-27T04:57:02.104Z,18.40
2019-04-27T04:59:33.907Z,18.47
2019-04-27T05:02:03.527Z,18.35
2019-04-27T05:04:34.418Z,18.26
2019-04-27T05:07:05.245Z,18.34
2019-04-27T05:09:35.166Z,18.35
2019-04-27T05:12:04.870Z,18.40
2019-04-27T05:14:34.678Z,18.43
2019-04-27T05:17:04.879Z,18.45
2019-04-27T05:19:34.862Z,18.46
2019-04-27T05:22:04.866Z,18.41
2019-04-27T05:24:34.960Z,18.41
2019-04-27T05:27:04.653Z,18.45
2019-04-27T05:29:34.903Z,18.41
2019-04-27T05:32:04.758Z,18.38
2019-04-27T05:34:34.678Z,18.32
2019-04-27T05:37:04.650Z,18.23
2019-04-27T05:39:34.466Z,18.33
2019-04-27T05:42:05.056Z,18.45
2019-04-27T05:45:19.993Z,18.43
2019-04-27T05:48:00.749Z,18.49
2019-04-27T05:50:38.077Z,18.28
2019-04-27T05:53:02.501Z,18.27
2019-04-27T05:55:32.743Z,18.37
2019-04-27T05:58:02.513Z,18.47
2019-04-27T06:00:32.922Z,18.55
2019-04-27T06:03:03.060Z,18.63
2019-04-27T06:05:32.929Z,18.74
2019-04-27T06:08:02.956Z,18.83
2019-04-27T06:10:32.930Z,18.83
2019-04-27T06:13:02.915Z,18.87
2019-04-27T06:15:33.249Z,18.96
2019-04-27T06:18:02.863Z,19.03
2019-04-27T06:20:32.909Z,19.09
2019-04-27T06:23:03.264Z,19.18
2019-04-27T06:25:33.368Z,19.25
2019-04-27T06:28:03.354Z,19.08
2019-04-27T06:30:33.364Z,19.13
2019-04-27T06:33:03.529Z,19.20
2019-04-27T06:35:35.067Z,19.34
2019-04-27T06:38:05.128Z,19.51
2019-04-27T06:40:35.523Z,19.67
2019-04-27T06:43:05.769Z,19.66
2019-04-27T06:45:35.861Z,19.59
2019-04-27T06:48:09.596Z,19.61
2019-04-27T06:50:39.856Z,19.56
2019-04-27T06:53:09.849Z,19.61
2019-04-27T06:55:39.950Z,19.69
2019-04-27T06:58:10.211Z,19.73
2019-04-27T07:00:40.179Z,19.81
2019-04-27T07:03:12.081Z,19.77
2019-04-27T07:06:04.837Z,19.71
2019-04-27T07:08:35.228Z,19.67
2019-04-27T07:11:04.870Z,19.58
2019-04-27T07:13:34.818Z,19.52
2019-04-27T07:16:04.726Z,19.48
2019-04-27T07:18:36.168Z,19.58
2019-04-27T07:21:16.153Z,19.44
2019-04-27T07:23:39.808Z,19.37
2019-04-27T07:26:10.007Z,19.51
2019-04-27T07:28:40.994Z,19.66
2019-04-27T07:31:11.617Z,19.80
2019-04-27T07:33:41.455Z,19.89
2019-04-27T07:36:11.608Z,19.92
2019-04-27T07:38:41.659Z,20.03
2019-04-27T07:41:12.220Z,19.74
2019-04-27T07:43:43.905Z,19.50
2019-04-27T07:46:13.957Z,19.34
2019-04-27T07:48:43.958Z,19.19
2019-04-27T07:51:14.243Z,19.14
2019-04-27T07:53:44.115Z,19.19
2019-04-27T07:56:14.122Z,19.28
2019-04-27T07:58:46.164Z,19.36
2019-04-27T08:01:16.655Z,19.35
2019-04-27T08:03:46.585Z,19.47
2019-04-27T08:06:16.504Z,19.53
2019-04-27T08:08:49.209Z,19.56
2019-04-27T08:11:22.049Z,19.47
2019-04-27T08:13:52.903Z,19.40
2019-04-27T08:16:23.007Z,19.42
2019-04-27T08:18:53.125Z,19.42
2019-04-27T08:21:23.225Z,19.46
2019-04-27T08:23:53.105Z,19.45
2019-04-27T08:26:24.743Z,19.42
2019-04-27T08:28:56.369Z,19.34
2019-04-27T08:31:33.878Z,19.27
2019-04-27T08:34:04.652Z,19.30
2019-04-27T08:36:34.350Z,19.40
2019-04-27T08:39:05.760Z,19.44
2019-04-27T08:41:35.633Z,19.49
2019-04-27T08:44:05.503Z,19.58
2019-04-27T08:46:35.684Z,19.61
2019-04-27T08:49:05.775Z,19.58
2019-04-27T08:51:37.017Z,19.68
2019-04-27T08:54:06.887Z,19.72
2019-04-27T08:56:36.854Z,19.80
2019-04-27T08:59:06.718Z,19.87
2019-04-27T09:01:37.047Z,19.83
2019-04-27T09:04:07.207Z,19.97
2019-04-27T09:06:39.901Z,19.98
2019-04-27T09:09:29.538Z,20.06
2019-04-27T09:12:01.337Z,20.21
2019-04-27T09:14:41.955Z,20.17
2019-04-27T09:17:16.004Z,20.00
2019-04-27T09:19:50.436Z,19.93
2019-04-27T09:22:20.944Z,19.74
2019-04-27T09:24:50.575Z,19.75
2019-04-27T09:27:20.624Z,19.95
2019-04-27T09:29:51.151Z,20.03
2019-04-27T09:32:21.623Z,20.10
2019-04-27T09:34:52.129Z,20.32
2019-04-27T09:37:22.034Z,20.56
2019-04-27T09:39:53.079Z,20.83
2019-04-27T09:42:22.941Z,20.61
2019-04-27T09:44:53.060Z,20.31
2019-04-27T09:47:23.092Z,20.06
2019-04-27T09:49:53.465Z,20.15
2019-04-27T09:52:26.969Z,21.14
2019-04-27T09:54:57.057Z,21.71
2019-04-27T09:57:27.365Z,22.00
2019-04-27T09:59:57.418Z,22.30
2019-04-27T10:02:27.874Z,22.44
2019-04-27T10:04:57.995Z,22.26
2019-04-27T10:07:27.941Z,21.94
2019-04-27T10:09:58.821Z,21.40
2019-04-27T10:12:28.632Z,21.28
2019-04-27T10:14:58.797Z,21.32
2019-04-27T10:17:28.977Z,21.45
2019-04-27T10:19:58.778Z,21.70
2019-04-27T10:22:40.384Z,22.46
2019-04-27T10:25:00.768Z,22.73
2019-04-27T10:27:32.028Z,22.29
2019-04-27T10:30:02.756Z,22.68
2019-04-27T10:32:33.058Z,23.91
2019-04-27T10:35:03.018Z,24.88
2019-04-27T10:37:33.208Z,25.41
2019-04-27T10:40:03.489Z,25.07
2019-04-27T10:42:33.729Z,24.19
2019-04-27T10:45:04.027Z,23.36
2019-04-27T10:47:36.019Z,23.07
2019-04-27T10:50:06.839Z,24.17
2019-04-27T10:52:37.505Z,24.76
2019-04-27T10:55:09.145Z,25.13
2019-04-27T10:57:39.603Z,25.15
2019-04-27T11:00:12.202Z,24.66
2019-04-27T11:02:42.623Z,24.05
2019-04-27T11:05:22.907Z,23.49
2019-04-27T11:07:56.362Z,22.95
2019-04-27T11:10:27.403Z,22.35
2019-04-27T11:12:57.397Z,21.94
2019-04-27T11:15:27.479Z,21.65
2019-04-27T11:17:57.531Z,21.47
2019-04-27T11:20:29.337Z,21.64
2019-04-27T11:23:07.138Z,22.21
2019-04-27T11:25:31.069Z,22.92
2019-04-27T11:28:01.903Z,23.12
2019-04-27T11:30:32.138Z,22.93
2019-04-27T11:33:02.054Z,22.29
2019-04-27T11:35:39.237Z,20.92
2019-04-27T11:38:11.448Z,19.16
2019-04-27T11:40:41.353Z,17.86
2019-04-27T11:43:11.379Z,17.38
2019-04-27T11:45:41.505Z,16.92
2019-04-27T11:48:11.514Z,16.55
2019-04-27T11:50:41.553Z,16.29
2019-04-27T11:53:22.074Z,16.48
2019-04-27T11:55:43.199Z,17.51
2019-04-27T11:58:13.189Z,19.21
2019-04-27T12:00:43.336Z,19.46
2019-04-27T12:03:13.817Z,20.92
2019-04-27T12:05:43.921Z,22.35
2019-04-27T12:08:16.076Z,23.32
2019-04-27T12:10:48.394Z,23.14
2019-04-27T12:13:18.523Z,23.68
2019-04-27T12:15:48.986Z,23.61
2019-04-27T12:18:19.305Z,24.48
2019-04-27T12:20:49.323Z,24.85
2019-04-27T12:23:32.733Z,25.38
2019-04-27T12:25:50.980Z,25.96
2019-04-27T12:28:27.216Z,26.88
2019-04-27T12:30:59.401Z,27.91
2019-04-27T12:33:29.237Z,28.39
2019-04-27T12:35:59.501Z,28.19
2019-04-27T12:38:29.991Z,28.54
2019-04-27T12:41:00.421Z,29.53
2019-04-27T12:43:30.432Z,30.40
2019-04-27T12:46:00.812Z,31.13
2019-04-27T12:48:31.257Z,31.44
2019-04-27T12:51:01.650Z,30.75
2019-04-27T12:53:47.728Z,30.91
2019-04-27T12:56:12.973Z,30.17
2019-04-27T12:58:51.066Z,30.70
2019-04-27T13:01:23.221Z,31.69
2019-04-27T13:03:56.623Z,30.92
2019-04-27T13:06:25.983Z,30.66
2019-04-27T13:08:56.576Z,30.42
2019-04-27T13:11:27.184Z,28.64
2019-04-27T13:13:58.156Z,27.19
2019-04-27T13:16:30.390Z,27.36
2019-04-27T13:19:01.630Z,26.18
2019-04-27T13:21:32.019Z,27.15
2019-04-27T13:24:05.098Z,28.52
2019-04-27T13:26:36.197Z,27.66
2019-04-27T13:29:06.845Z,28.31
2019-04-27T13:31:37.003Z,28.42
2019-04-27T13:34:07.575Z,27.18
2019-04-27T13:36:38.106Z,26.06
2019-04-27T13:39:08.633Z,25.05
2019-04-27T13:41:38.585Z,24.25
2019-04-27T13:44:08.813Z,23.45
2019-04-27T13:46:56.535Z,22.63
2019-04-27T13:49:27.958Z,21.22
2019-04-27T13:51:59.698Z,20.07
2019-04-27T13:54:30.030Z,19.04
2019-04-27T13:57:00.409Z,18.28
2019-04-27T13:59:31.806Z,17.84
2019-04-27T14:02:01.973Z,17.61
2019-04-27T14:04:31.986Z,17.38
2019-04-27T14:07:02.027Z,17.27
2019-04-27T14:09:31.914Z,17.39
2019-04-27T14:12:06.163Z,17.64
2019-04-27T14:14:36.491Z,17.86
2019-04-27T14:17:07.882Z,17.96
2019-04-27T14:19:39.492Z,18.01
2019-04-27T14:22:09.309Z,18.10
2019-04-27T14:24:40.594Z,18.35
2019-04-27T14:27:10.592Z,18.53
2019-04-27T14:29:40.632Z,18.92
2019-04-27T14:32:10.844Z,19.45
2019-04-27T14:34:40.632Z,19.94
2019-04-27T14:37:10.632Z,20.39
2019-04-27T14:39:42.710Z,21.39
2019-04-27T14:42:13.014Z,22.48
2019-04-27T14:44:43.566Z,24.12
2019-04-27T14:47:14.134Z,25.84
2019-04-27T14:49:44.350Z,27.23
2019-04-27T14:52:14.346Z,28.38
2019-04-27T14:54:48.101Z,29.37
2019-04-27T14:57:16.544Z,29.86
2019-04-27T14:59:46.949Z,30.40
2019-04-27T15:02:18.547Z,30.93
2019-04-27T15:04:48.956Z,31.01
2019-04-27T15:07:19.602Z,31.13
2019-04-27T15:09:53.799Z,31.10
2019-04-27T15:12:24.399Z,30.59
2019-04-27T15:14:53.300Z,30.68
2019-04-27T15:17:26.646Z,30.78
2019-04-27T15:20:13.072Z,30.78
2019-04-27T15:22:43.811Z,31.08
2019-04-27T15:25:15.718Z,31.02
2019-04-27T15:27:47.771Z,30.79
2019-04-27T15:30:39.643Z,29.94
2019-04-27T15:33:26.155Z,29.19
2019-04-27T15:36:08.398Z,29.24
2019-04-27T15:38:47.002Z,29.27
2019-04-27T15:41:19.635Z,29.41
2019-04-27T15:43:50.163Z,29.39
2019-04-27T15:46:21.456Z,29.27
2019-04-27T15:48:54.195Z,29.07
2019-04-27T15:51:23.050Z,27.81
2019-04-27T15:53:54.003Z,26.19
2019-04-27T15:56:23.890Z,24.72
2019-04-27T15:58:55.702Z,23.69
2019-04-27T16:01:25.476Z,22.86
2019-04-27T16:03:55.236Z,22.25
2019-04-27T16:06:25.536Z,21.66
2019-04-27T16:08:55.783Z,21.25
2019-04-27T16:11:25.665Z,20.96
2019-04-27T16:13:55.798Z,21.03
2019-04-27T16:16:29.082Z,20.96
2019-04-27T16:18:59.331Z,21.85
2019-04-27T16:21:31.503Z,23.55
2019-04-27T16:24:01.180Z,24.69
2019-04-27T16:26:31.202Z,25.35
2019-04-27T16:29:01.947Z,25.61
2019-04-27T16:31:33.757Z,25.38
2019-04-27T16:34:04.297Z,24.65
2019-04-27T16:36:37.760Z,24.56
2019-04-27T16:39:10.085Z,24.41
2019-04-27T16:41:42.023Z,24.50
2019-04-27T16:44:11.818Z,24.28
2019-04-27T16:46:42.950Z,23.71
2019-04-27T16:49:14.829Z,23.47
2019-04-27T16:51:44.894Z,23.00
2019-04-27T16:54:17.691Z,22.63
2019-04-27T16:56:53.412Z,22.01
2019-04-27T16:59:39.567Z,21.31
2019-04-27T17:01:50.473Z,20.89
2019-04-27T17:04:20.268Z,20.60
2019-04-27T17:06:50.638Z,20.08
2019-04-27T17:09:20.461Z,19.73
2019-04-27T17:11:51.806Z,19.41
2019-04-27T17:14:35.251Z,19.21
2019-04-27T17:17:10.394Z,18.95
2019-04-27T17:19:42.476Z,18.66
2019-04-27T17:22:14.755Z,18.55
2019-04-27T17:24:46.785Z,18.37
2019-04-27T17:27:22.837Z,18.15
2019-04-27T17:29:57.404Z,17.92
2019-04-27T17:32:25.516Z,17.81
2019-04-27T17:34:55.500Z,17.50
2019-04-27T17:37:30.011Z,17.49
2019-04-27T17:39:59.435Z,17.58
2019-04-27T17:42:30.636Z,17.64
2019-04-27T17:45:00.657Z,17.65
2019-04-27T17:47:30.666Z,17.64
2019-04-27T17:50:00.471Z,17.55
2019-04-27T17:52:30.578Z,17.63
2019-04-27T17:55:00.694Z,17.70
2019-04-27T17:57:30.624Z,17.77
2019-04-27T18:00:03.245Z,17.77
2019-04-27T18:02:33.783Z,17.79
2019-04-27T18:05:03.799Z,17.80
2019-04-27T18:07:34.893Z,17.84
2019-04-27T18:10:06.598Z,17.89
2019-04-27T18:12:36.606Z,17.89
2019-04-27T18:15:10.555Z,18.00
2019-04-27T18:17:44.571Z,17.98
2019-04-27T18:20:13.188Z,17.89
2019-04-27T18:22:50.519Z,17.88
2019-04-27T18:25:20.464Z,17.88
2019-04-27T18:27:52.046Z,17.84
2019-04-27T18:30:29.367Z,17.82
2019-04-27T18:33:02.014Z,17.82
2019-04-27T18:35:31.225Z,17.74
2019-04-27T18:38:01.931Z,17.69
2019-04-27T18:40:33.572Z,17.70
2019-04-27T18:43:06.567Z,17.70
2019-04-27T18:45:38.117Z,17.67
2019-04-27T18:48:13.537Z,17.57
2019-04-27T18:50:43.478Z,17.51
2019-04-27T18:53:16.374Z,17.46
2019-04-27T18:55:49.995Z,17.35
2019-04-27T18:58:18.857Z,17.38
2019-04-27T19:00:48.468Z,17.37
2019-04-27T19:03:18.449Z,17.32
2019-04-27T19:05:48.231Z,17.40
2019-04-27T19:08:19.943Z,16.90
2019-04-27T19:10:48.715Z,16.21
2019-04-27T19:13:19.225Z,15.57
2019-04-27T19:15:49.011Z,14.99
2019-04-27T19:18:18.904Z,14.34
2019-04-27T19:20:48.343Z,13.97
2019-04-27T19:23:17.717Z,13.83
2019-04-27T19:25:48.602Z,13.73
2019-04-27T19:28:23.136Z,13.79
2019-04-27T19:30:54.032Z,13.75
2019-04-27T19:33:23.245Z,13.58
2019-04-27T19:35:52.642Z,13.58
2019-04-27T19:38:21.839Z,13.88
2019-04-27T19:40:51.222Z,14.07
2019-04-27T19:43:20.498Z,14.06
2019-04-27T19:45:49.787Z,14.00
2019-04-27T19:48:19.034Z,14.11
2019-04-27T19:50:48.182Z,14.16
2019-04-27T19:53:19.427Z,14.18
2019-04-27T19:56:03.960Z,14.17
2019-04-27T19:58:34.969Z,14.15
2019-04-27T20:01:11.768Z,14.15
2019-04-27T20:03:41.393Z,14.15
2019-04-27T20:06:10.849Z,14.13
2019-04-27T20:08:41.638Z,14.23
2019-04-27T20:11:10.878Z,14.34
2019-04-27T20:13:41.141Z,14.33
2019-04-27T20:16:10.854Z,14.44
2019-04-27T20:18:43.214Z,14.53
2019-04-27T20:21:12.345Z,14.59
2019-04-27T20:23:41.664Z,14.70
2019-04-27T20:26:10.898Z,14.80
2019-04-27T20:28:41.422Z,14.92
2019-04-27T20:31:11.041Z,14.94
2019-04-27T20:33:43.129Z,14.98
2019-04-27T20:36:12.446Z,14.93
2019-04-27T20:38:41.956Z,14.95
2019-04-27T20:41:11.618Z,14.98
2019-04-27T20:43:42.069Z,15.03
2019-04-27T20:46:11.902Z,15.07
2019-04-27T20:48:41.435Z,15.08
2019-04-27T20:51:11.407Z,14.95
2019-04-27T20:53:45.368Z,14.81
2019-04-27T20:56:14.675Z,14.68
2019-04-27T20:58:43.819Z,14.70
2019-04-27T21:01:13.033Z,14.73
2019-04-27T21:03:43.860Z,14.72
2019-04-27T21:06:14.663Z,14.76
2019-04-27T21:08:44.822Z,14.78
2019-04-27T21:11:14.127Z,14.70
2019-04-27T21:13:43.448Z,14.26
2019-04-27T21:16:12.698Z,14.36
2019-04-27T21:18:42.092Z,14.39
2019-04-27T21:21:11.543Z,14.45
2019-04-27T21:23:41.401Z,14.42
2019-04-27T21:26:10.834Z,14.42
2019-04-27T21:28:41.551Z,14.44
2019-04-27T21:31:12.693Z,14.44
2019-04-27T21:33:42.110Z,14.43
2019-04-27T21:36:11.865Z,14.43
2019-04-27T21:38:43.008Z,14.38
2019-04-27T21:41:12.142Z,14.28
2019-04-27T21:43:43.579Z,14.32
2019-04-27T21:46:12.618Z,14.25
2019-04-27T21:48:41.974Z,14.31
2019-04-27T21:51:11.865Z,14.35
2019-04-27T21:53:57.774Z,14.40
2019-04-27T21:56:27.105Z,14.32
2019-04-27T21:58:56.517Z,14.36
2019-04-27T22:01:27.854Z,14.38
2019-04-27T22:03:57.194Z,14.42
2019-04-27T22:06:26.354Z,14.47
2019-04-27T22:08:55.604Z,14.48
2019-04-27T22:11:25.059Z,14.39
2019-04-27T22:13:54.319Z,14.31
2019-04-27T22:16:23.549Z,14.30
2019-04-27T22:18:52.771Z,14.29
2019-04-27T22:21:22.011Z,14.29
2019-04-27T22:23:53.214Z,14.30
2019-04-27T22:26:22.484Z,14.26
2019-04-27T22:28:52.190Z,14.24
2019-04-27T22:31:21.682Z,14.18
2019-04-27T22:33:54.378Z,14.05
2019-04-27T22:36:21.869Z,14.17
2019-04-27T22:38:51.715Z,14.18
2019-04-27T22:41:31.728Z,14.19
2019-04-27T22:44:08.409Z,14.20
2019-04-27T22:46:45.170Z,14.17
2019-04-27T22:49:14.493Z,14.12
2019-04-27T22:51:43.819Z,14.19
2019-04-27T22:54:13.048Z,14.16
2019-04-27T22:56:43.852Z,14.27
2019-04-27T22:59:17.491Z,14.28
2019-04-27T23:01:51.477Z,14.19
2019-04-27T23:04:27.877Z,14.07
2019-04-27T23:06:57.257Z,13.95
2019-04-27T23:09:26.557Z,14.00
2019-04-27T23:11:55.811Z,13.91
2019-04-27T23:14:25.063Z,13.81
2019-04-27T23:17:03.194Z,13.74
2019-04-27T23:19:32.596Z,13.71
2019-04-27T23:22:01.784Z,13.73
2019-04-27T23:24:31.135Z,13.80
2019-04-27T23:27:03.424Z,13.76
2019-04-27T23:29:33.166Z,13.72
2019-04-27T23:32:06.772Z,13.77
2019-04-27T23:34:36.813Z,13.77
2019-04-27T23:37:06.043Z,13.86
2019-04-27T23:39:35.263Z,13.80
2019-04-27T23:42:06.776Z,13.85
2019-04-27T23:44:35.357Z,13.89
2019-04-27T23:47:04.556Z,13.90
2019-04-27T23:49:33.821Z,13.96
2019-04-27T23:52:04.636Z,14.02
2019-04-27T23:54:33.953Z,14.05
2019-04-27T23:57:03.192Z,14.03
2019-04-27T23:59:33.361Z,14.09
